createdAt,value
2022-10-19T00:02:39.227Z,11.65
2022-10-19T00:05:22.609Z,11.77
2022-10-19T00:08:06.670Z,11.56
2022-10-19T00:10:50.201Z,11.61
2022-10-19T00:13:33.972Z,11.79
2022-10-19T00:16:18.843Z,11.74
2022-10-19T00:19:07.443Z,11.48
2022-10-19T00:21:51.742Z,11.90
2022-10-19T00:24:35.224Z,11.78
2022-10-19T00:27:18.650Z,11.77
2022-10-19T00:30:02.043Z,11.68
2022-10-19T00:32:45.422Z,12.01
2022-10-19T00:35:28.818Z,11.82
2022-10-19T00:38:12.188Z,12.03
2022-10-19T00:40:56.656Z,11.85
2022-10-19T00:43:53.144Z,11.86
2022-10-19T00:46:44.542Z,11.67
2022-10-19T00:49:34.435Z,11.66
2022-10-19T00:52:23.155Z,11.79
2022-10-19T00:55:09.136Z,11.72
2022-10-19T00:57:52.762Z,11.80
2022-10-19T01:00:37.346Z,11.64
2022-10-19T01:03:21.557Z,11.70
2022-10-19T01:06:06.200Z,11.69
2022-10-19T01:08:49.586Z,11.77
2022-10-19T01:12:01.741Z,12.04
2022-10-19T01:15:20.595Z,11.97
2022-10-19T01:18:35.959Z,11.90
2022-10-19T01:21:26.155Z,11.71
2022-10-19T01:24:15.506Z,11.81
2022-10-19T01:28:04.296Z,11.61
2022-10-19T01:31:04.955Z,11.56
2022-10-19T01:34:06.663Z,11.43
2022-10-19T01:37:03.401Z,11.49
2022-10-19T01:39:56.579Z,11.83
2022-10-19T01:43:09.373Z,11.68
2022-10-19T01:46:03.726Z,11.61
2022-10-19T01:49:33.997Z,12.00
2022-10-19T01:52:21.483Z,11.76
2022-10-19T01:55:05.960Z,11.98
2022-10-19T01:57:59.239Z,11.88
2022-10-19T02:00:48.643Z,11.93
2022-10-19T02:03:35.222Z,11.95
2022-10-19T02:06:19.646Z,11.92
2022-10-19T02:09:03.300Z,11.94
2022-10-19T02:11:57.841Z,12.10
2022-10-19T02:14:50.326Z,12.12
2022-10-19T02:17:42.464Z,11.73
2022-10-19T02:20:28.502Z,11.88
2022-10-19T02:23:15.416Z,11.85
2022-10-19T02:25:59.777Z,12.11
2022-10-19T02:28:44.513Z,11.48
2022-10-19T02:31:27.989Z,11.52
2022-10-19T02:34:12.468Z,11.36
2022-10-19T02:36:56.416Z,11.49
2022-10-19T02:39:40.712Z,11.53
2022-10-19T02:42:58.474Z,11.79
2022-10-19T02:45:53.431Z,11.79
2022-10-19T02:48:40.544Z,11.74
2022-10-19T02:51:35.485Z,11.87
2022-10-19T02:54:18.830Z,11.74
2022-10-19T02:57:14.310Z,11.85
2022-10-19T02:59:57.970Z,11.92
2022-10-19T03:02:41.374Z,11.96
2022-10-19T03:05:24.732Z,11.72
2022-10-19T03:08:07.981Z,11.65
2022-10-19T03:10:51.158Z,11.54
2022-10-19T03:13:34.596Z,11.61
2022-10-19T03:16:18.722Z,11.37
2022-10-19T03:19:02.107Z,11.58
2022-10-19T03:21:45.486Z,11.32
2022-10-19T03:24:30.602Z,11.32
2022-10-19T03:27:13.968Z,11.28
2022-10-19T03:29:57.336Z,11.43
2022-10-19T03:32:40.801Z,11.42
2022-10-19T03:35:24.177Z,11.19
2022-10-19T03:38:07.526Z,11.18
2022-10-19T03:40:50.888Z,11.35
2022-10-19T03:43:34.872Z,11.41
2022-10-19T03:46:19.150Z,11.04
2022-10-19T03:49:04.188Z,11.04
2022-10-19T03:51:48.034Z,10.92
2022-10-19T03:54:31.408Z,10.96
2022-10-19T03:57:14.824Z,11.18
2022-10-19T03:59:58.183Z,10.97
2022-10-19T04:02:41.561Z,11.06
2022-10-19T04:05:24.946Z,11.25
2022-10-19T04:08:08.328Z,11.52
2022-10-19T04:10:51.691Z,11.19
2022-10-19T04:13:35.810Z,11.29
2022-10-19T04:16:21.448Z,11.39
2022-10-19T04:19:04.818Z,11.29
2022-10-19T04:21:49.693Z,11.53
2022-10-19T04:24:33.159Z,11.58
2022-10-19T04:27:16.614Z,11.61
2022-10-19T04:29:59.991Z,11.54
2022-10-19T04:32:43.349Z,11.57
2022-10-19T04:35:26.751Z,11.57
2022-10-19T04:38:10.144Z,11.10
2022-10-19T04:40:53.669Z,11.33
2022-10-19T04:43:37.985Z,11.44
2022-10-19T04:46:21.449Z,11.57
2022-10-19T04:49:06.818Z,11.57
2022-10-19T04:51:50.308Z,11.14
2022-10-19T04:54:33.654Z,11.06
2022-10-19T04:57:17.110Z,11.25
2022-10-19T05:00:00.567Z,11.21
2022-10-19T05:02:47.577Z,11.38
2022-10-19T05:05:33.201Z,11.33
2022-10-19T05:08:16.715Z,11.44
2022-10-19T05:11:11.330Z,11.69
2022-10-19T05:13:55.628Z,11.61
2022-10-19T05:16:39.085Z,11.43
2022-10-19T05:19:22.452Z,11.53
2022-10-19T05:22:05.794Z,11.23
2022-10-19T05:24:49.174Z,11.11
2022-10-19T05:27:34.011Z,11.09
2022-10-19T05:30:17.682Z,11.01
2022-10-19T05:33:01.055Z,11.08
2022-10-19T05:35:44.483Z,11.06
2022-10-19T05:38:30.069Z,11.04
2022-10-19T05:41:14.425Z,10.88
2022-10-19T05:44:01.117Z,11.06
2022-10-19T05:46:44.954Z,11.13
2022-10-19T05:49:28.783Z,10.80
2022-10-19T05:52:13.100Z,10.57
2022-10-19T05:54:58.343Z,10.67
2022-10-19T05:57:41.769Z,10.71
2022-10-19T06:00:25.166Z,10.49
2022-10-19T06:03:08.543Z,10.73
2022-10-19T06:05:53.526Z,10.50
2022-10-19T06:08:38.108Z,10.56
2022-10-19T06:11:25.423Z,10.58
2022-10-19T06:14:15.469Z,10.85
2022-10-19T06:16:58.877Z,10.79
2022-10-19T06:19:42.228Z,10.75
2022-10-19T06:22:25.583Z,10.74
2022-10-19T06:25:09.318Z,10.84
2022-10-19T06:27:53.188Z,10.86
2022-10-19T06:30:40.873Z,11.00
2022-10-19T06:33:24.432Z,10.96
2022-10-19T06:36:15.569Z,11.00
2022-10-19T06:39:01.658Z,10.86
2022-10-19T06:41:45.146Z,11.03
2022-10-19T06:44:35.044Z,11.19
2022-10-19T06:47:18.401Z,11.16
2022-10-19T06:50:04.083Z,11.12
2022-10-19T06:52:47.615Z,11.36
2022-10-19T06:55:30.969Z,11.37
2022-10-19T06:58:14.438Z,11.40
2022-10-19T07:01:02.189Z,11.35
2022-10-19T07:03:45.674Z,11.21
2022-10-19T07:06:29.082Z,11.38
2022-10-19T07:09:12.508Z,11.51
2022-10-19T07:11:55.853Z,11.42
2022-10-19T07:14:39.918Z,11.62
2022-10-19T07:17:23.304Z,11.62
2022-10-19T07:20:07.225Z,11.80
2022-10-19T07:22:50.652Z,11.68
2022-10-19T07:25:34.036Z,11.78
2022-10-19T07:28:17.379Z,11.52
2022-10-19T07:31:06.961Z,11.58
2022-10-19T07:33:55.855Z,11.80
2022-10-19T07:36:40.129Z,11.53
2022-10-19T07:39:23.650Z,11.57
2022-10-19T07:42:07.137Z,11.59
2022-10-19T07:44:50.488Z,11.52
2022-10-19T07:47:34.736Z,11.86
2022-10-19T07:50:18.360Z,11.89
2022-10-19T07:53:05.312Z,12.11
2022-10-19T07:55:48.771Z,11.71
2022-10-19T07:58:32.671Z,12.11
2022-10-19T08:01:32.211Z,11.94
2022-10-19T08:07:20.704Z,11.97
2022-10-19T08:10:05.198Z,12.15
2022-10-19T08:12:48.624Z,12.11
2022-10-19T08:15:32.711Z,12.17
2022-10-19T08:18:18.486Z,11.90
2022-10-19T08:21:03.114Z,11.84
2022-10-19T08:23:46.671Z,11.68
2022-10-19T08:26:32.764Z,12.02
2022-10-19T08:29:20.177Z,12.16
2022-10-19T08:32:03.936Z,12.00
2022-10-19T08:34:47.734Z,11.60
2022-10-19T08:37:44.091Z,11.96
2022-10-19T08:40:31.036Z,11.98
2022-10-19T08:43:37.103Z,12.03
2022-10-19T08:46:33.770Z,11.95
2022-10-19T08:49:23.331Z,12.19
2022-10-19T08:52:27.714Z,11.74
2022-10-19T08:55:20.580Z,11.89
2022-10-19T08:58:25.760Z,12.21
2022-10-19T09:01:20.761Z,12.09
2022-10-19T09:04:35.748Z,12.12
2022-10-19T09:07:45.043Z,12.35
2022-10-19T09:10:40.266Z,12.20
2022-10-19T09:14:00.570Z,12.15
2022-10-19T09:16:46.447Z,11.71
2022-10-19T09:19:32.086Z,12.11
2022-10-19T09:22:35.001Z,12.38
2022-10-19T09:25:25.723Z,12.32
2022-10-19T09:28:59.572Z,12.61
2022-10-19T09:31:43.551Z,12.80
2022-10-19T09:34:41.343Z,12.72
2022-10-19T09:37:26.737Z,12.52
2022-10-19T09:40:21.407Z,12.77
2022-10-19T09:43:20.963Z,12.40
2022-10-19T09:46:20.306Z,12.50
2022-10-19T09:49:05.577Z,12.21
2022-10-19T09:51:53.000Z,12.13
2022-10-19T09:54:39.783Z,12.34
2022-10-19T09:57:23.615Z,12.67
2022-10-19T10:00:07.303Z,12.54
2022-10-19T10:02:54.253Z,12.92
2022-10-19T10:05:40.383Z,12.71
2022-10-19T10:08:29.771Z,12.64
2022-10-19T10:11:22.891Z,13.41
2022-10-19T10:14:20.134Z,13.37
2022-10-19T10:20:30.494Z,13.06
2022-10-19T10:23:26.223Z,13.32
2022-10-19T10:26:19.975Z,13.78
2022-10-19T10:29:03.553Z,13.92
2022-10-19T10:54:22.977Z,13.68
2022-10-19T10:57:16.760Z,13.63
2022-10-19T11:00:17.628Z,13.54
2022-10-19T11:03:26.642Z,13.54
2022-10-19T11:06:12.471Z,14.08
2022-10-19T11:09:04.321Z,13.63
2022-10-19T11:11:51.772Z,13.90
2022-10-19T11:14:53.745Z,13.58
2022-10-19T11:17:52.973Z,13.34
2022-10-19T11:20:50.811Z,13.56
2022-10-19T11:23:51.667Z,13.63
2022-10-19T11:27:17.706Z,13.51
2022-10-19T11:30:14.998Z,13.63
2022-10-19T11:33:38.134Z,14.27
2022-10-19T11:36:53.889Z,14.01
2022-10-19T11:40:03.480Z,14.14
2022-10-19T11:43:23.525Z,13.92
2022-10-19T11:46:25.622Z,13.96
2022-10-19T11:49:50.923Z,14.84
2022-10-19T11:53:39.817Z,14.74
2022-10-19T11:56:58.495Z,14.39
2022-10-19T12:00:15.103Z,14.20
2022-10-19T12:03:23.962Z,13.97
2022-10-19T12:06:39.935Z,14.36
2022-10-19T12:09:28.705Z,13.57
2022-10-19T12:12:31.159Z,13.64
2022-10-19T12:15:43.548Z,13.82
2022-10-19T12:19:05.635Z,13.69
2022-10-19T12:21:50.894Z,13.93
2022-10-19T12:24:35.311Z,13.87
2022-10-19T12:27:35.838Z,13.87
2022-10-19T12:30:24.969Z,14.47
2022-10-19T12:33:56.846Z,14.30
2022-10-19T12:37:08.941Z,14.30
2022-10-19T12:40:27.709Z,14.12
2022-10-19T12:43:31.439Z,14.21
2022-10-19T12:47:00.773Z,13.71
2022-10-19T12:49:58.314Z,14.06
2022-10-19T12:52:49.267Z,14.60
2022-10-19T12:55:34.999Z,14.66
2022-10-19T12:58:24.053Z,14.87
2022-10-19T13:01:20.619Z,14.34
2022-10-19T13:04:14.040Z,14.65
2022-10-19T13:06:57.232Z,14.16
2022-10-19T13:09:48.434Z,14.85
2022-10-19T13:12:46.116Z,14.69
2022-10-19T13:15:50.780Z,14.59
2022-10-19T13:19:14.678Z,15.13
2022-10-19T13:22:00.893Z,14.26
2022-10-19T13:25:06.037Z,14.72
2022-10-19T13:28:02.475Z,14.56
2022-10-19T13:30:45.713Z,14.59
2022-10-19T13:33:29.075Z,14.78
2022-10-19T13:36:13.978Z,15.05
2022-10-19T13:39:13.972Z,14.96
2022-10-19T13:41:58.637Z,14.83
2022-10-19T13:44:47.281Z,14.58
2022-10-19T13:47:40.827Z,14.28
2022-10-19T13:50:35.938Z,14.48
2022-10-19T13:53:47.106Z,14.74
2022-10-19T13:57:10.876Z,14.48
2022-10-19T14:00:21.810Z,14.45
2022-10-19T14:03:24.080Z,14.62
2022-10-19T14:06:27.633Z,14.87
2022-10-19T14:09:27.715Z,15.16
2022-10-19T14:12:29.805Z,14.61
2022-10-19T14:15:29.674Z,14.81
2022-10-19T14:18:30.163Z,14.14
2022-10-19T14:21:13.531Z,14.60
2022-10-19T14:23:57.228Z,14.68
2022-10-19T14:26:40.870Z,14.98
2022-10-19T14:29:24.424Z,14.39
2022-10-19T14:32:10.993Z,14.60
2022-10-19T14:38:19.950Z,14.53
2022-10-19T14:41:27.465Z,14.62
2022-10-19T14:44:44.018Z,14.18
2022-10-19T14:47:27.474Z,14.36
2022-10-19T14:50:11.800Z,14.52
2022-10-19T14:53:33.000Z,14.48
2022-10-19T14:56:33.033Z,14.33
2022-10-19T14:59:29.094Z,13.88
2022-10-19T15:02:21.020Z,14.23
2022-10-19T15:05:15.753Z,13.92
2022-10-19T15:08:34.860Z,13.45
2022-10-19T15:11:29.453Z,14.42
2022-10-19T15:14:19.124Z,13.91
2022-10-19T15:17:05.873Z,13.73
2022-10-19T15:19:49.285Z,13.58
2022-10-19T15:22:32.638Z,14.07
2022-10-19T15:25:34.024Z,14.51
2022-10-19T15:28:39.165Z,14.68
2022-10-19T15:31:30.137Z,14.96
2022-10-19T15:34:27.796Z,13.04
2022-10-19T15:37:22.277Z,13.29
2022-10-19T15:40:23.923Z,13.64
2022-10-19T15:43:35.481Z,13.49
2022-10-19T15:46:31.604Z,13.73
2022-10-19T15:49:42.854Z,13.81
2022-10-19T15:52:37.128Z,14.16
2022-10-19T15:55:20.458Z,14.01
2022-10-19T15:58:03.830Z,14.23
2022-10-19T16:00:47.383Z,14.47
2022-10-19T16:03:30.890Z,14.53
2022-10-19T16:06:15.574Z,14.50
2022-10-19T16:09:03.489Z,14.34
2022-10-19T16:11:47.504Z,14.56
2022-10-19T16:14:33.132Z,14.43
2022-10-19T16:17:20.208Z,14.22
2022-10-19T16:20:06.379Z,14.31
2022-10-19T16:22:49.989Z,14.15
2022-10-19T16:25:33.344Z,13.98
2022-10-19T16:28:17.403Z,13.81
2022-10-19T16:31:00.765Z,13.87
2022-10-19T16:33:44.446Z,13.71
2022-10-19T16:36:27.952Z,13.70
2022-10-19T16:39:11.356Z,13.55
2022-10-19T16:41:54.746Z,13.72
2022-10-19T16:44:38.116Z,13.34
2022-10-19T16:47:21.626Z,13.22
2022-10-19T16:50:06.794Z,13.61
2022-10-19T16:53:10.421Z,13.54
2022-10-19T16:56:09.457Z,13.55
2022-10-19T16:59:06.205Z,13.49
2022-10-19T17:01:49.871Z,13.48
2022-10-19T17:04:33.347Z,13.47
2022-10-19T17:07:17.480Z,13.36
2022-10-19T17:10:00.863Z,13.31
2022-10-19T17:12:44.383Z,13.28
2022-10-19T17:15:42.659Z,13.18
2022-10-19T17:18:26.723Z,13.08
2022-10-19T17:21:20.234Z,12.97
2022-10-19T17:24:05.878Z,12.64
2022-10-19T17:26:54.474Z,12.61
2022-10-19T17:29:37.889Z,12.74
2022-10-19T17:32:21.318Z,12.70
2022-10-19T17:35:05.193Z,12.61
2022-10-19T17:37:48.668Z,12.22
2022-10-19T17:40:33.108Z,12.00
2022-10-19T17:43:19.483Z,12.01
2022-10-19T17:46:06.474Z,12.17
2022-10-19T17:48:50.548Z,12.13
2022-10-19T17:51:36.535Z,12.02
2022-10-19T17:54:20.250Z,11.92
2022-10-19T17:57:03.673Z,11.87
2022-10-19T17:59:52.963Z,11.63
2022-10-19T18:02:36.625Z,11.61
2022-10-19T18:05:20.004Z,11.42
2022-10-19T18:08:03.374Z,11.47
2022-10-19T18:10:46.740Z,11.43
2022-10-19T18:13:31.316Z,11.23
2022-10-19T18:16:20.097Z,11.37
2022-10-19T18:19:05.271Z,11.37
2022-10-19T18:21:49.241Z,11.30
2022-10-19T18:24:34.689Z,11.28
2022-10-19T18:27:18.096Z,11.15
2022-10-19T18:30:01.522Z,11.03
2022-10-19T18:32:48.887Z,11.02
2022-10-19T18:35:40.214Z,10.99
2022-10-19T18:38:23.606Z,10.94
2022-10-19T18:44:15.926Z,10.80
2022-10-19T18:46:59.533Z,10.75
2022-10-19T18:49:42.956Z,10.74
2022-10-19T18:52:26.337Z,10.63
2022-10-19T18:55:10.175Z,10.54
2022-10-19T18:57:53.816Z,10.36
2022-10-19T19:00:39.840Z,10.38
2022-10-19T19:03:26.047Z,10.32
2022-10-19T19:06:13.859Z,10.23
2022-10-19T19:09:00.053Z,10.19
2022-10-19T19:11:43.521Z,10.19
2022-10-19T19:14:26.895Z,10.11
2022-10-19T19:17:10.387Z,9.97
2022-10-19T19:19:53.854Z,9.90
2022-10-19T19:22:37.732Z,9.92
2022-10-19T19:25:21.944Z,9.95
2022-10-19T19:28:05.324Z,9.86
2022-10-19T19:30:48.811Z,9.83
2022-10-19T19:33:32.830Z,9.79
2022-10-19T19:36:18.619Z,9.69
2022-10-19T19:39:02.321Z,9.71
2022-10-19T19:41:46.448Z,9.64
2022-10-19T19:44:29.930Z,9.61
2022-10-19T19:47:13.373Z,9.59
2022-10-19T19:49:56.870Z,9.53
2022-10-19T19:52:40.710Z,9.46
2022-10-19T19:55:24.716Z,9.43
2022-10-19T19:58:08.364Z,9.26
2022-10-19T20:00:51.732Z,9.23
2022-10-19T20:03:35.120Z,9.26
2022-10-19T20:06:22.211Z,9.21
2022-10-19T20:09:09.210Z,9.17
2022-10-19T20:11:52.632Z,9.26
2022-10-19T20:14:36.383Z,9.29
2022-10-19T20:17:26.425Z,9.21
2022-10-19T20:20:13.079Z,8.98
2022-10-19T20:22:56.708Z,9.14
2022-10-19T20:25:40.227Z,9.05
2022-10-19T20:28:28.067Z,8.94
2022-10-19T20:31:13.486Z,8.93
2022-10-19T20:33:57.047Z,8.95
2022-10-19T20:36:40.698Z,8.91
2022-10-19T20:39:24.085Z,8.88
2022-10-19T20:42:07.471Z,8.85
2022-10-19T20:44:51.110Z,8.82
2022-10-19T20:47:34.445Z,8.71
2022-10-19T20:50:20.591Z,8.59
2022-10-19T20:53:05.418Z,8.58
2022-10-19T20:55:48.872Z,8.45
2022-10-19T20:58:33.983Z,8.42
2022-10-19T21:01:19.304Z,8.49
2022-10-19T21:04:06.364Z,8.52
2022-10-19T21:06:52.160Z,8.52
2022-10-19T21:09:36.004Z,8.50
2022-10-19T21:12:19.498Z,8.39
2022-10-19T21:15:02.958Z,8.20
2022-10-19T21:17:47.671Z,8.23
2022-10-19T21:20:31.081Z,8.30
2022-10-19T21:23:14.731Z,8.28
2022-10-19T21:25:58.391Z,8.02
2022-10-19T21:28:50.594Z,8.13
2022-10-19T21:31:34.024Z,8.08
2022-10-19T21:34:24.580Z,8.04
2022-10-19T21:37:07.960Z,8.02
2022-10-19T21:39:51.319Z,7.83
2022-10-19T21:42:34.697Z,7.95
2022-10-19T21:45:29.892Z,7.91
2022-10-19T21:48:14.382Z,7.70
2022-10-19T21:50:57.779Z,7.74
2022-10-19T21:53:41.224Z,7.78
2022-10-19T21:56:24.741Z,7.77
2022-10-19T21:59:08.211Z,7.86
2022-10-19T22:01:51.734Z,7.93
2022-10-19T22:04:35.145Z,7.76
2022-10-19T22:07:19.227Z,7.74
2022-10-19T22:10:02.962Z,7.81
2022-10-19T22:12:46.403Z,7.79
2022-10-19T22:15:29.746Z,7.74
2022-10-19T22:18:13.219Z,7.72
2022-10-19T22:20:56.613Z,7.65
2022-10-19T22:23:40.296Z,7.50
2022-10-19T22:26:33.968Z,7.45
2022-10-19T22:29:17.535Z,7.44
2022-10-19T22:32:00.953Z,7.44
2022-10-19T22:34:44.321Z,7.62
2022-10-19T22:37:27.859Z,7.11
2022-10-19T22:40:11.648Z,6.86
2022-10-19T22:42:55.032Z,6.35
2022-10-19T22:45:38.381Z,6.54
2022-10-19T22:48:21.815Z,6.61
2022-10-19T22:51:05.655Z,7.10
2022-10-19T22:53:49.087Z,6.96
2022-10-19T22:56:32.488Z,7.09
2022-10-19T22:59:15.888Z,6.79
2022-10-19T23:01:59.439Z,6.78
2022-10-19T23:04:42.843Z,6.81
2022-10-19T23:07:26.216Z,6.72
2022-10-19T23:10:09.932Z,6.80
2022-10-19T23:12:54.675Z,6.64
2022-10-19T23:15:41.702Z,6.70
2022-10-19T23:18:29.903Z,6.68
2022-10-19T23:21:14.991Z,6.64
2022-10-19T23:23:58.391Z,6.60
2022-10-19T23:26:41.744Z,6.72
2022-10-19T23:29:25.103Z,6.75
2022-10-19T23:32:08.417Z,6.61
2022-10-19T23:34:51.991Z,6.88
2022-10-19T23:37:35.991Z,6.86
2022-10-19T23:40:19.539Z,6.92
2022-10-19T23:43:02.988Z,7.02
2022-10-19T23:45:46.512Z,6.83
2022-10-19T23:48:29.977Z,7.02
2022-10-19T23:51:17.529Z,7.06
2022-10-19T23:54:00.871Z,6.89
2022-10-19T23:56:44.292Z,7.00
2022-10-19T23:59:27.905Z,7.06
